Time;durP1;ratioP1;P1;durP2;ratioP2;P2;SDS_P1;SDS_P2;PMS_P1;PMS_P2;Temp;Humidity;BMP_temperature;BMP_pressure;BME280_temperature;BME280_humidity;BME280_pressure;Samples;Min_cycle;Max_cycle;Signal;HPM_P1;HPM_P2
2023/01/31 00:00:47;;;;;;;9.68;8.88;;;;;;;;;;5052968;28;20381;-87
2023/01/31 00:03:13;;;;;;;9.75;8.95;;;;;;;;;;5052937;28;20389;-88
2023/01/31 00:05:39;;;;;;;9.00;8.20;;;;;;;;;;5052268;28;20863;-87
2023/01/31 00:08:05;;;;;;;8.35;7.65;;;;;;;;;;5052706;28;20408;-88
2023/01/31 00:10:31;;;;;;;8.75;8.02;;;;;;;;;;5051937;28;20509;-89
2023/01/31 00:12:57;;;;;;;8.55;7.88;;;;;;;;;;5051808;28;20420;-88
2023/01/31 00:15:23;;;;;;;8.68;7.97;;;;;;;;;;5050104;28;20866;-88
2023/01/31 00:17:49;;;;;;;9.30;8.60;;;;;;;;;;5051846;28;20385;-89
2023/01/31 00:20:16;;;;;;;8.40;7.70;;;;;;;;;;5049229;28;20400;-87
2023/01/31 00:22:41;;;;;;;8.88;8.18;;;;;;;;;;5052864;28;20472;-88
2023/01/31 00:25:08;;;;;;;8.50;7.80;;;;;;;;;;5051958;28;20822;-90
2023/01/31 00:27:34;;;;;;;8.00;7.40;;;;;;;;;;5054118;28;20416;-89
2023/01/31 00:30:00;;;;;;;8.40;7.70;;;;;;;;;;5056126;28;20373;-87
2023/01/31 00:32:26;;;;;;;8.90;8.20;;;;;;;;;;5057093;28;20409;-88
2023/01/31 00:34:55;;;;;;;9.18;8.38;;;;;;;;;;5039166;28;20882;-88
2023/01/31 00:37:21;;;;;;;9.38;8.52;;;;;;;;;;5056269;28;20921;-88
2023/01/31 00:39:47;;;;;;;10.10;9.20;;;;;;;;;;5056240;28;20858;-87
2023/01/31 00:42:13;;;;;;;9.90;9.00;;;;;;;;;;5053605;28;20389;-88
2023/01/31 00:44:39;;;;;;;10.60;9.70;;;;;;;;;;5045388;28;20877;-89
2023/01/31 00:47:05;;;;;;;11.20;10.10;;;;;;;;;;5047227;28;20372;-88
2023/01/31 00:49:32;;;;;;;10.75;9.75;;;;;;;;;;5042879;28;20889;-89
2023/01/31 00:51:58;;;;;;;11.13;10.13;;;;;;;;;;5074408;28;20385;-88
2023/01/31 00:54:24;;;;;;;11.52;9.63;;;;;;;;;;5078843;28;20420;-88
2023/01/31 00:56:49;;;;;;;11.02;10.02;;;;;;;;;;5063082;28;20427;-89
2023/01/31 00:59:15;;;;;;;10.75;9.80;;;;;;;;;;5067787;28;20942;-87
2023/01/31 01:01:42;;;;;;;10.40;9.50;;;;;;;;;;5065574;28;20377;-88
2023/01/31 01:04:08;;;;;;;9.57;8.68;;;;;;;;;;5059165;28;20377;-89
2023/01/31 01:06:34;;;;;;;10.40;9.50;;;;;;;;;;5057792;28;20441;-87
2023/01/31 01:09:00;;;;;;;9.68;8.77;;;;;;;;;;5056983;28;20409;-87
2023/01/31 01:11:27;;;;;;;8.63;7.82;;;;;;;;;;5030394;28;20927;-89
2023/01/31 01:13:54;;;;;;;9.45;8.65;;;;;;;;;;5055916;28;20382;-88
2023/01/31 01:16:21;;;;;;;9.02;8.23;;;;;;;;;;5056022;28;20373;-88
2023/01/31 01:18:49;;;;;;;8.95;8.15;;;;;;;;;;5055803;28;20423;-88
2023/01/31 01:21:16;;;;;;;9.20;8.50;;;;;;;;;;5056333;28;20488;-88
2023/01/31 01:23:43;;;;;;;7.93;7.32;;;;;;;;;;5055672;28;20389;-88
2023/01/31 01:26:13;;;;;;;7.95;7.35;;;;;;;;;;5038047;28;20396;-89
2023/01/31 01:28:39;;;;;;;8.52;7.82;;;;;;;;;;5037730;28;20437;-89
2023/01/31 01:31:06;;;;;;;9.10;8.38;;;;;;;;;;5055566;28;20858;-88
2023/01/31 01:33:32;;;;;;;9.60;8.70;;;;;;;;;;5055155;28;20459;-87
2023/01/31 01:36:03;;;;;;;8.95;8.25;;;;;;;;;;5033561;28;20811;-87
2023/01/31 01:38:29;;;;;;;8.63;7.82;;;;;;;;;;5034288;28;20800;-88
2023/01/31 01:40:55;;;;;;;8.85;8.15;;;;;;;;;;5034118;28;20481;-88
2023/01/31 01:43:21;;;;;;;8.85;8.05;;;;;;;;;;5033289;28;20430;-88
2023/01/31 01:45:48;;;;;;;8.82;8.13;;;;;;;;;;5035261;28;20394;-89
2023/01/31 01:48:16;;;;;;;8.90;8.10;;;;;;;;;;5035265;28;20983;-89
2023/01/31 01:50:48;;;;;;;8.98;8.27;;;;;;;;;;5034990;28;20421;-88
2023/01/31 01:53:18;;;;;;;8.35;7.65;;;;;;;;;;5034998;28;20905;-88
2023/01/31 01:55:47;;;;;;;8.87;8.17;;;;;;;;;;5034616;28;20424;-88
2023/01/31 01:58:14;;;;;;;9.05;8.25;;;;;;;;;;5033419;28;20416;-88
2023/01/31 02:00:40;;;;;;;8.90;8.10;;;;;;;;;;5034917;28;20406;-87
2023/01/31 02:03:07;;;;;;;8.40;7.70;;;;;;;;;;5034791;28;20399;-88
2023/01/31 02:05:45;;;;;;;9.00;8.27;;;;;;;;;;5034769;28;20417;-88
2023/01/31 02:08:12;;;;;;;8.97;8.17;;;;;;;;;;5034780;28;20479;-88
2023/01/31 02:10:38;;;;;;;8.50;7.75;;;;;;;;;;5034748;28;20713;-88
2023/01/31 02:13:04;;;;;;;8.90;8.20;;;;;;;;;;5033418;28;20385;-89
2023/01/31 02:15:31;;;;;;;10.23;9.33;;;;;;;;;;5034319;28;20462;-87
2023/01/31 02:17:57;;;;;;;11.57;10.57;;;;;;;;;;5034483;28;20394;-88
2023/01/31 02:20:23;;;;;;;13.05;11.77;;;;;;;;;;5034272;28;20391;-88
2023/01/31 02:22:58;;;;;;;12.65;11.55;;;;;;;;;;5034773;28;20383;-87
2023/01/31 02:25:24;;;;;;;11.10;10.10;;;;;;;;;;5034371;28;20884;-88
2023/01/31 02:27:59;;;;;;;10.10;9.20;;;;;;;;;;5034659;28;20406;-88
2023/01/31 02:30:34;;;;;;;9.00;8.27;;;;;;;;;;5032868;28;20884;-89
2023/01/31 02:33:03;;;;;;;9.55;8.77;;;;;;;;;;5034510;28;20465;-87
2023/01/31 02:35:29;;;;;;;9.10;8.40;;;;;;;;;;5046556;28;20405;-88
2023/01/31 02:38:09;;;;;;;9.00;8.27;;;;;;;;;;5054177;28;20929;-88
2023/01/31 02:40:54;;;;;;;10.30;9.40;;;;;;;;;;5054125;28;20456;-88
2023/01/31 02:43:25;;;;;;;11.40;10.38;;;;;;;;;;5054050;28;20381;-88
2023/01/31 02:46:04;;;;;;;11.75;10.65;;;;;;;;;;5053989;28;20393;-88
2023/01/31 02:48:36;;;;;;;10.93;9.93;;;;;;;;;;5054114;28;20521;-87
2023/01/31 02:51:20;;;;;;;11.45;10.35;;;;;;;;;;5050248;28;20394;-88
2023/01/31 02:53:49;;;;;;;12.95;11.75;;;;;;;;;;5034473;28;20478;-89
2023/01/31 02:56:27;;;;;;;13.05;11.80;;;;;;;;;;5048488;28;20424;-87
2023/01/31 02:59:01;;;;;;;12.48;11.18;;;;;;;;;;5052625;28;20409;-88
2023/01/31 03:01:32;;;;;;;13.10;11.90;;;;;;;;;;5053429;28;20389;-87
2023/01/31 03:03:59;;;;;;;13.95;12.65;;;;;;;;;;5053206;28;20422;-87
2023/01/31 03:06:25;;;;;;;13.45;12.20;;;;;;;;;;5035705;28;20389;-87
2023/01/31 03:09:01;;;;;;;12.25;11.25;;;;;;;;;;5052373;28;20411;-89
2023/01/31 03:11:35;;;;;;;12.75;11.60;;;;;;;;;;5032611;28;20882;-87
2023/01/31 03:14:17;;;;;;;14.10;11.93;;;;;;;;;;5053314;28;20385;-88
2023/01/31 03:19:47;;;;;;;13.40;12.20;;;;;;;;;;5051847;28;20377;-87
2023/01/31 03:22:16;;;;;;;12.53;11.43;;;;;;;;;;5052402;28;20382;-87
2023/01/31 03:24:43;;;;;;;12.98;11.70;;;;;;;;;;5053087;28;20418;-89
2023/01/31 03:27:10;;;;;;;12.95;11.75;;;;;;;;;;5051759;28;20385;-87
2023/01/31 03:29:37;;;;;;;13.32;12.05;;;;;;;;;;5051944;28;20405;-88
2023/01/31 03:32:10;;;;;;;12.95;11.75;;;;;;;;;;5052043;28;20380;-87
2023/01/31 03:34:37;;;;;;;13.05;11.75;;;;;;;;;;5051535;28;20404;-88
2023/01/31 03:37:28;;;;;;;14.57;13.07;;;;;;;;;;5051838;28;20465;-87
2023/01/31 03:40:00;;;;;;;14.23;12.77;;;;;;;;;;5032150;28;20786;-88
2023/01/31 03:42:53;;;;;;;13.93;12.43;;;;;;;;;;5032570;28;20451;-87
2023/01/31 03:45:32;;;;;;;13.18;11.93;;;;;;;;;;5047108;28;20417;-89
2023/01/31 03:48:02;;;;;;;12.95;11.52;;;;;;;;;;5049385;28;20966;-89
2023/01/31 03:50:30;;;;;;;12.55;11.30;;;;;;;;;;5051526;28;20388;-87
2023/01/31 03:53:00;;;;;;;13.15;11.85;;;;;;;;;;5050836;28;20436;-89
2023/01/31 03:55:58;;;;;;;10.73;9.82;;;;;;;;;;5050693;28;20391;-88
2023/01/31 03:58:27;;;;;;;10.15;9.15;;;;;;;;;;4964054;28;20452;-88
2023/01/31 04:00:54;;;;;;;8.98;8.18;;;;;;;;;;5050595;28;20492;-88
2023/01/31 04:03:23;;;;;;;9.18;8.27;;;;;;;;;;5050241;28;20431;-88
2023/01/31 04:05:49;;;;;;;9.05;8.32;;;;;;;;;;5033778;28;20739;-88
2023/01/31 04:08:18;;;;;;;8.90;8.18;;;;;;;;;;5034067;28;20424;-91
2023/01/31 04:10:44;;;;;;;8.90;8.00;;;;;;;;;;5050943;28;20425;-89
2023/01/31 04:13:10;;;;;;;8.37;7.67;;;;;;;;;;5054402;28;20373;-90
2023/01/31 04:15:36;;;;;;;8.50;7.70;;;;;;;;;;5036224;28;20386;-87
2023/01/31 04:18:02;;;;;;;8.93;8.03;;;;;;;;;;5065168;28;20422;-88
2023/01/31 04:20:28;;;;;;;8.60;7.90;;;;;;;;;;5050562;28;20391;-88
2023/01/31 04:22:54;;;;;;;8.63;7.82;;;;;;;;;;5074365;28;20393;-87
2023/01/31 04:25:20;;;;;;;8.50;7.70;;;;;;;;;;5077160;28;20381;-87
2023/01/31 04:27:46;;;;;;;8.40;7.70;;;;;;;;;;5045626;28;20417;-86
2023/01/31 04:30:12;;;;;;;9.20;8.20;;;;;;;;;;5057815;28;20914;-87
2023/01/31 04:32:38;;;;;;;8.75;7.95;;;;;;;;;;5057183;28;20475;-87
2023/01/31 04:35:04;;;;;;;8.45;7.68;;;;;;;;;;5055708;28;20448;-87
2023/01/31 04:37:30;;;;;;;8.85;7.95;;;;;;;;;;5052878;28;20408;-86
2023/01/31 04:39:56;;;;;;;8.48;7.68;;;;;;;;;;5032322;28;20893;-88
2023/01/31 04:42:25;;;;;;;8.68;7.88;;;;;;;;;;5053769;28;20393;-89
2023/01/31 04:44:51;;;;;;;8.25;7.50;;;;;;;;;;5035204;28;20446;-88
2023/01/31 04:47:17;;;;;;;8.45;7.65;;;;;;;;;;5053026;28;20397;-88
2023/01/31 04:49:43;;;;;;;7.85;7.25;;;;;;;;;;5051302;28;20381;-87
2023/01/31 04:52:09;;;;;;;7.70;7.10;;;;;;;;;;5050732;28;20957;-89
2023/01/31 04:54:38;;;;;;;8.32;7.63;;;;;;;;;;5037110;28;20417;-89
2023/01/31 04:57:04;;;;;;;8.80;8.00;;;;;;;;;;5032618;28;20829;-90
2023/01/31 04:59:30;;;;;;;8.07;7.38;;;;;;;;;;5035098;28;20383;-88
2023/01/31 05:01:56;;;;;;;7.95;7.20;;;;;;;;;;5032282;28;20386;-89
2023/01/31 05:04:22;;;;;;;9.65;8.68;;;;;;;;;;5035803;28;20465;-89
2023/01/31 05:06:48;;;;;;;8.55;7.75;;;;;;;;;;5044813;28;20392;-87
2023/01/31 05:09:15;;;;;;;8.73;7.93;;;;;;;;;;5051894;28;20492;-88
2023/01/31 05:11:41;;;;;;;8.75;7.95;;;;;;;;;;5050988;28;20384;-88
2023/01/31 05:14:07;;;;;;;9.82;8.93;;;;;;;;;;5055221;28;20739;-87
2023/01/31 05:16:33;;;;;;;11.15;10.13;;;;;;;;;;5054680;28;20381;-87
2023/01/31 05:18:59;;;;;;;12.65;11.18;;;;;;;;;;5054466;28;20978;-87
2023/01/31 05:21:25;;;;;;;12.60;10.68;;;;;;;;;;5054332;28;20400;-88
2023/01/31 05:23:51;;;;;;;11.65;10.40;;;;;;;;;;5054596;28;20381;-88
2023/01/31 05:26:18;;;;;;;11.70;10.63;;;;;;;;;;5055373;28;20477;-87
2023/01/31 05:28:43;;;;;;;12.57;11.37;;;;;;;;;;5048245;28;20504;-87
2023/01/31 05:31:11;;;;;;;12.98;11.70;;;;;;;;;;5055612;28;20385;-88
2023/01/31 05:33:38;;;;;;;13.57;12.30;;;;;;;;;;5045577;28;20852;-89
2023/01/31 05:36:04;;;;;;;15.35;12.38;;;;;;;;;;5055831;28;20906;-89
2023/01/31 05:38:30;;;;;;;12.65;11.45;;;;;;;;;;5055447;28;20515;-89
2023/01/31 05:40:56;;;;;;;12.15;11.00;;;;;;;;;;5056072;28;20405;-89
2023/01/31 05:43:22;;;;;;;15.98;13.60;;;;;;;;;;5056427;28;20414;-89
2023/01/31 05:45:48;;;;;;;14.05;12.65;;;;;;;;;;5055935;28;20405;-88
2023/01/31 05:48:14;;;;;;;16.13;12.18;;;;;;;;;;5056228;28;20429;-89
2023/01/31 05:50:40;;;;;;;15.02;12.02;;;;;;;;;;5056877;28;20403;-88
2023/01/31 05:53:08;;;;;;;13.25;11.85;;;;;;;;;;5055745;28;20381;-89
2023/01/31 05:55:34;;;;;;;12.48;11.18;;;;;;;;;;5037895;28;20410;-89
2023/01/31 05:57:59;;;;;;;13.70;11.83;;;;;;;;;;5055595;28;20393;-89
2023/01/31 06:00:26;;;;;;;13.20;10.13;;;;;;;;;;5055615;28;20392;-89
2023/01/31 06:02:52;;;;;;;12.50;10.33;;;;;;;;;;5038433;28;20468;-89
2023/01/31 06:05:18;;;;;;;10.48;9.50;;;;;;;;;;5055782;28;20393;-91
2023/01/31 06:07:44;;;;;;;10.70;9.60;;;;;;;;;;5055659;28;20440;-88
2023/01/31 06:10:10;;;;;;;10.90;9.88;;;;;;;;;;5055731;28;20746;-88
2023/01/31 06:12:37;;;;;;;10.02;9.02;;;;;;;;;;5055867;28;20373;-90
2023/01/31 06:15:03;;;;;;;9.85;8.85;;;;;;;;;;5037469;28;20410;-90
2023/01/31 06:17:29;;;;;;;10.68;9.52;;;;;;;;;;5056345;28;20431;-88
2023/01/31 06:19:57;;;;;;;9.65;8.75;;;;;;;;;;5055241;28;21796;-90
2023/01/31 06:22:23;;;;;;;9.25;8.45;;;;;;;;;;5056123;28;20415;-89
2023/01/31 06:24:49;;;;;;;8.82;8.07;;;;;;;;;;5037723;28;20389;-89
2023/01/31 06:27:15;;;;;;;8.90;8.10;;;;;;;;;;5055312;28;20476;-88
2023/01/31 06:29:41;;;;;;;9.60;8.60;;;;;;;;;;5055418;28;20839;-88
2023/01/31 06:32:07;;;;;;;10.07;9.07;;;;;;;;;;5056774;28;20378;-89
2023/01/31 06:34:33;;;;;;;9.43;8.43;;;;;;;;;;5056627;28;20405;-89
2023/01/31 06:36:59;;;;;;;9.90;9.00;;;;;;;;;;5056249;28;20732;-89
2023/01/31 06:39:25;;;;;;;9.70;8.70;;;;;;;;;;5037911;28;20397;-90
2023/01/31 06:41:51;;;;;;;9.75;8.50;;;;;;;;;;5037904;28;20385;-88
2023/01/31 06:44:17;;;;;;;9.50;8.52;;;;;;;;;;5054932;28;20392;-90
2023/01/31 06:46:43;;;;;;;9.77;8.87;;;;;;;;;;5054079;28;20397;-88
2023/01/31 06:49:09;;;;;;;9.88;8.88;;;;;;;;;;5037329;28;20778;-90
2023/01/31 06:51:35;;;;;;;9.47;8.53;;;;;;;;;;5037426;28;20382;-89
2023/01/31 06:54:01;;;;;;;9.30;8.45;;;;;;;;;;5054798;28;20435;-90
2023/01/31 06:56:27;;;;;;;9.27;8.40;;;;;;;;;;5053951;28;20541;-90
2023/01/31 06:58:53;;;;;;;8.77;8.02;;;;;;;;;;5036869;28;20389;-89
2023/01/31 07:01:21;;;;;;;8.77;8.07;;;;;;;;;;5054878;28;20907;-89
2023/01/31 07:03:47;;;;;;;9.23;8.30;;;;;;;;;;5052788;28;20389;-89
2023/01/31 07:06:13;;;;;;;9.20;8.32;;;;;;;;;;5054403;28;20392;-88
2023/01/31 07:08:40;;;;;;;9.40;8.60;;;;;;;;;;5053916;28;20405;-89
2023/01/31 07:11:06;;;;;;;8.80;8.00;;;;;;;;;;5053184;28;20377;-84
2023/01/31 07:13:32;;;;;;;9.32;8.43;;;;;;;;;;5052535;28;20481;-84
2023/01/31 07:15:58;;;;;;;9.27;8.48;;;;;;;;;;5051908;28;20377;-84
2023/01/31 07:18:24;;;;;;;10.50;9.50;;;;;;;;;;5034801;28;20406;-84
2023/01/31 07:20:50;;;;;;;9.80;8.90;;;;;;;;;;5033011;28;20786;-84
2023/01/31 07:23:16;;;;;;;9.95;8.93;;;;;;;;;;5050308;28;20396;-83
2023/01/31 07:25:42;;;;;;;10.85;9.75;;;;;;;;;;5032892;28;20385;-88
2023/01/31 07:28:09;;;;;;;10.77;9.43;;;;;;;;;;5052725;28;20419;-89
2023/01/31 07:30:35;;;;;;;10.15;9.15;;;;;;;;;;5052586;28;20386;-89
2023/01/31 07:33:01;;;;;;;12.02;10.93;;;;;;;;;;5049929;28;20439;-91
2023/01/31 07:35:27;;;;;;;11.43;10.32;;;;;;;;;;5032169;28;20405;-88
2023/01/31 07:37:53;;;;;;;10.70;9.70;;;;;;;;;;5052777;28;20378;-87
2023/01/31 07:40:20;;;;;;;11.10;10.07;;;;;;;;;;5034084;28;20397;-88
2023/01/31 07:42:46;;;;;;;10.60;9.60;;;;;;;;;;5035468;28;20555;-87
2023/01/31 07:45:13;;;;;;;11.60;10.60;;;;;;;;;;5052471;28;20377;-89
2023/01/31 07:47:41;;;;;;;10.35;9.40;;;;;;;;;;5062053;28;20435;-87
2023/01/31 07:50:07;;;;;;;10.30;9.40;;;;;;;;;;5068916;28;20414;-86
2023/01/31 07:52:33;;;;;;;10.82;9.82;;;;;;;;;;5070531;28;20388;-86
2023/01/31 07:54:59;;;;;;;11.03;10.03;;;;;;;;;;5076303;28;20388;-88
2023/01/31 07:57:25;;;;;;;12.07;10.85;;;;;;;;;;5050304;28;20382;-87
2023/01/31 07:59:51;;;;;;;11.73;10.57;;;;;;;;;;5059067;28;20389;-90
2023/01/31 08:05:03;;;;;;;10.52;9.52;;;;;;;;;;5050875;28;20490;-85
2023/01/31 08:07:29;;;;;;;10.20;9.23;;;;;;;;;;5052231;28;20420;-83
2023/01/31 08:09:55;;;;;;;11.07;10.07;;;;;;;;;;5033923;28;20386;-83
2023/01/31 08:12:21;;;;;;;10.20;9.10;;;;;;;;;;5033491;28;20462;-83
2023/01/31 08:14:47;;;;;;;9.80;8.85;;;;;;;;;;5051133;28;20464;-83
2023/01/31 08:17:13;;;;;;;9.80;9.00;;;;;;;;;;5033807;28;20816;-82
2023/01/31 08:19:39;;;;;;;10.38;9.38;;;;;;;;;;5051046;28;20393;-83
2023/01/31 08:22:05;;;;;;;10.90;9.98;;;;;;;;;;5051790;28;20377;-82
2023/01/31 08:24:32;;;;;;;11.27;10.20;;;;;;;;;;5050819;28;20384;-83
2023/01/31 08:26:58;;;;;;;10.15;9.15;;;;;;;;;;5050321;28;20396;-82
2023/01/31 08:29:25;;;;;;;9.77;8.88;;;;;;;;;;5046250;28;20494;-82
2023/01/31 08:31:51;;;;;;;10.05;9.15;;;;;;;;;;5044490;28;20407;-82
2023/01/31 08:34:17;;;;;;;10.68;9.60;;;;;;;;;;5049424;28;20745;-82
2023/01/31 08:36:43;;;;;;;10.35;9.35;;;;;;;;;;5049733;28;20381;-83
2023/01/31 08:39:10;;;;;;;10.35;9.35;;;;;;;;;;5050944;28;20385;-82
2023/01/31 08:41:36;;;;;;;10.63;9.60;;;;;;;;;;5051936;28;20385;-82
2023/01/31 08:44:03;;;;;;;9.77;8.77;;;;;;;;;;5052002;28;20447;-83
2023/01/31 08:46:35;;;;;;;10.38;9.38;;;;;;;;;;5052156;28;20882;-82
2023/01/31 08:49:03;;;;;;;9.90;9.00;;;;;;;;;;5055594;28;21021;-82
2023/01/31 08:51:29;;;;;;;10.30;9.38;;;;;;;;;;5055549;28;20381;-82
2023/01/31 08:53:55;;;;;;;10.93;9.65;;;;;;;;;;5055805;28;20392;-82
2023/01/31 08:56:24;;;;;;;11.32;10.18;;;;;;;;;;5055770;28;20378;-83
2023/01/31 08:58:51;;;;;;;14.45;12.73;;;;;;;;;;5055664;28;20922;-83
2023/01/31 09:01:17;;;;;;;13.02;11.82;;;;;;;;;;5055568;28;20473;-83
2023/01/31 09:03:44;;;;;;;12.48;11.38;;;;;;;;;;5053666;28;20392;-83
2023/01/31 09:06:11;;;;;;;12.10;11.00;;;;;;;;;;5037700;28;20901;-84
2023/01/31 09:08:37;;;;;;;13.68;12.32;;;;;;;;;;5055509;28;20454;-83
2023/01/31 09:11:03;;;;;;;13.43;12.13;;;;;;;;;;5037816;28;20381;-83
2023/01/31 09:13:30;;;;;;;13.82;12.43;;;;;;;;;;5055363;28;20382;-82
2023/01/31 09:16:03;;;;;;;14.33;13.03;;;;;;;;;;5055331;28;20395;-83
2023/01/31 09:18:30;;;;;;;13.90;12.43;;;;;;;;;;5054402;28;20409;-83
2023/01/31 09:20:56;;;;;;;13.52;12.15;;;;;;;;;;5044672;28;20750;-83
2023/01/31 09:23:22;;;;;;;14.25;12.85;;;;;;;;;;5055193;28;20398;-83
2023/01/31 09:25:52;;;;;;;15.50;14.00;;;;;;;;;;5055156;28;20388;-83
2023/01/31 09:28:18;;;;;;;12.25;11.05;;;;;;;;;;5054895;28;20405;-83
2023/01/31 09:30:44;;;;;;;13.15;11.65;;;;;;;;;;5055015;28;20877;-83
2023/01/31 09:33:10;;;;;;;13.23;11.85;;;;;;;;;;5055248;28;20374;-83
2023/01/31 09:35:36;;;;;;;13.05;11.80;;;;;;;;;;5054626;28;20902;-83
2023/01/31 09:38:02;;;;;;;13.13;11.82;;;;;;;;;;5054866;28;20378;-83
2023/01/31 09:40:30;;;;;;;12.50;11.30;;;;;;;;;;5054664;28;20408;-83
2023/01/31 09:42:57;;;;;;;12.38;11.07;;;;;;;;;;5055127;28;20417;-83
2023/01/31 09:45:23;;;;;;;13.50;12.07;;;;;;;;;;5054294;28;20409;-82
2023/01/31 09:47:50;;;;;;;11.90;10.63;;;;;;;;;;5037030;28;20941;-82
2023/01/31 09:50:21;;;;;;;12.77;11.40;;;;;;;;;;5036761;28;20863;-83
2023/01/31 09:52:48;;;;;;;13.32;12.00;;;;;;;;;;5054544;28;20885;-83
2023/01/31 09:55:18;;;;;;;12.73;11.43;;;;;;;;;;5054156;28;20847;-83
2023/01/31 09:57:50;;;;;;;9.00;8.10;;;;;;;;;;5054461;28;20389;-83
2023/01/31 10:00:21;;;;;;;11.05;9.85;;;;;;;;;;5035424;28;20397;-83
2023/01/31 10:02:50;;;;;;;9.50;8.60;;;;;;;;;;5054424;28;20957;-83
2023/01/31 10:05:23;;;;;;;13.18;8.55;;;;;;;;;;5036226;28;20744;-83
2023/01/31 10:07:52;;;;;;;12.63;10.25;;;;;;;;;;5054172;28;20504;-82
2023/01/31 10:10:37;;;;;;;9.40;8.15;;;;;;;;;;5036253;28;20450;-82
2023/01/31 10:13:06;;;;;;;8.25;5.60;;;;;;;;;;5048794;28;20422;-82
2023/01/31 10:15:38;;;;;;;6.93;5.25;;;;;;;;;;5053801;28;20429;-82
2023/01/31 10:18:14;;;;;;;7.93;4.75;;;;;;;;;;5053914;28;20697;-82
2023/01/31 10:20:46;;;;;;;7.38;4.72;;;;;;;;;;5053882;28;20442;-81
2023/01/31 10:23:31;;;;;;;5.77;4.73;;;;;;;;;;5051388;28;20486;-80
2023/01/31 10:26:01;;;;;;;5.90;4.90;;;;;;;;;;5051546;28;20396;-80
2023/01/31 10:28:32;;;;;;;6.28;4.65;;;;;;;;;;5052086;28;20461;-80
2023/01/31 10:30:58;;;;;;;9.02;5.25;;;;;;;;;;5052628;28;20471;-80
2023/01/31 10:33:35;;;;;;;6.55;5.20;;;;;;;;;;5052320;28;20373;-80
2023/01/31 10:36:03;;;;;;;5.60;4.90;;;;;;;;;;5052418;28;20927;-81
2023/01/31 10:38:32;;;;;;;6.10;4.90;;;;;;;;;;5052471;28;20501;-80
2023/01/31 10:41:21;;;;;;;6.53;4.75;;;;;;;;;;5052530;28;20422;-81
2023/01/31 10:43:53;;;;;;;7.35;5.88;;;;;;;;;;5051948;28;20450;-80
2023/01/31 10:46:19;;;;;;;6.18;4.70;;;;;;;;;;5052822;28;20897;-81
2023/01/31 10:48:47;;;;;;;6.97;5.40;;;;;;;;;;5053192;28;20405;-83
2023/01/31 10:51:13;;;;;;;7.13;4.70;;;;;;;;;;5053278;28;20933;-82
2023/01/31 10:53:41;;;;;;;8.18;5.60;;;;;;;;;;5051950;28;20390;-82
2023/01/31 10:56:16;;;;;;;6.00;5.40;;;;;;;;;;5035289;28;20410;-82
2023/01/31 10:58:42;;;;;;;6.03;5.20;;;;;;;;;;5052772;28;20524;-81
2023/01/31 11:01:13;;;;;;;6.97;5.27;;;;;;;;;;5050563;28;20384;-81
2023/01/31 11:03:40;;;;;;;5.47;4.97;;;;;;;;;;5049859;28;20389;-81
2023/01/31 11:06:06;;;;;;;6.70;5.07;;;;;;;;;;5052043;28;20389;-82
2023/01/31 11:08:35;;;;;;;7.80;5.22;;;;;;;;;;5051690;28;20401;-82
2023/01/31 11:11:09;;;;;;;5.82;5.32;;;;;;;;;;5037347;28;20797;-81
2023/01/31 11:13:35;;;;;;;8.43;6.05;;;;;;;;;;5052904;28;20430;-81
2023/01/31 11:16:02;;;;;;;6.70;5.82;;;;;;;;;;5052944;28;20381;-81
2023/01/31 11:18:31;;;;;;;7.85;5.53;;;;;;;;;;5056209;28;20439;-82
2023/01/31 11:20:58;;;;;;;6.97;5.68;;;;;;;;;;5058810;28;20377;-81
2023/01/31 11:23:25;;;;;;;6.95;5.50;;;;;;;;;;5058599;28;20472;-80
2023/01/31 11:25:52;;;;;;;6.50;5.80;;;;;;;;;;5065925;28;20469;-79
2023/01/31 11:28:28;;;;;;;7.23;5.67;;;;;;;;;;5063285;28;20921;-81
2023/01/31 11:30:54;;;;;;;6.37;5.43;;;;;;;;;;5058025;28;20524;-81
2023/01/31 11:33:39;;;;;;;7.35;5.65;;;;;;;;;;5055520;28;20381;-82
2023/01/31 11:36:09;;;;;;;6.25;5.65;;;;;;;;;;5053341;28;20492;-81
2023/01/31 11:38:35;;;;;;;6.20;5.60;;;;;;;;;;5051406;28;20386;-82
2023/01/31 11:41:01;;;;;;;6.40;5.53;;;;;;;;;;5052140;28;20385;-83
2023/01/31 11:43:30;;;;;;;6.93;5.78;;;;;;;;;;5052743;28;20381;-83
2023/01/31 11:46:00;;;;;;;7.03;5.70;;;;;;;;;;5034307;28;20397;-83
2023/01/31 11:48:28;;;;;;;6.60;5.72;;;;;;;;;;5052330;28;20813;-83
2023/01/31 11:50:56;;;;;;;6.97;5.63;;;;;;;;;;5052518;28;20393;-83
2023/01/31 11:53:34;;;;;;;6.63;5.93;;;;;;;;;;5052050;28;20382;-83
2023/01/31 11:56:09;;;;;;;6.45;5.72;;;;;;;;;;5052187;28;20426;-83
2023/01/31 11:58:36;;;;;;;6.80;6.15;;;;;;;;;;5052759;28;20390;-83
2023/01/31 12:01:08;;;;;;;7.03;5.70;;;;;;;;;;5052459;28;20774;-83
2023/01/31 12:03:34;;;;;;;6.60;5.88;;;;;;;;;;5052230;28;20871;-83
2023/01/31 12:06:01;;;;;;;6.28;5.65;;;;;;;;;;5052330;28;20389;-83
2023/01/31 12:08:41;;;;;;;8.10;5.88;;;;;;;;;;5030600;28;20412;-83
2023/01/31 12:11:19;;;;;;;8.40;5.43;;;;;;;;;;5051605;28;20414;-83
2023/01/31 12:13:47;;;;;;;6.90;5.38;;;;;;;;;;5051922;28;21029;-83
2023/01/31 12:16:13;;;;;;;7.22;5.07;;;;;;;;;;5051901;28;20381;-83
2023/01/31 12:18:58;;;;;;;5.75;5.22;;;;;;;;;;5052181;28;20385;-83
2023/01/31 12:21:26;;;;;;;8.10;5.40;;;;;;;;;;5052139;28;20424;-83
2023/01/31 12:23:53;;;;;;;6.57;4.78;;;;;;;;;;5057258;28;20915;-84
2023/01/31 12:26:22;;;;;;;6.05;4.70;;;;;;;;;;5039199;28;20393;-84
2023/01/31 12:29:08;;;;;;;5.15;4.55;;;;;;;;;;5056031;28;20453;-84
2023/01/31 12:31:44;;;;;;;5.78;4.30;;;;;;;;;;5056162;28;20544;-84
2023/01/31 12:34:13;;;;;;;6.40;4.47;;;;;;;;;;5055583;28;20455;-83
2023/01/31 12:36:57;;;;;;;5.97;4.88;;;;;;;;;;5056121;28;20433;-84
2023/01/31 12:39:26;;;;;;;5.53;4.60;;;;;;;;;;5055775;28;20405;-83
2023/01/31 12:42:01;;;;;;;6.43;4.57;;;;;;;;;;5055677;28;20416;-83
2023/01/31 12:44:27;;;;;;;8.13;4.60;;;;;;;;;;5054498;28;20422;-83
2023/01/31 12:46:56;;;;;;;5.63;4.45;;;;;;;;;;5053611;28;20791;-83
2023/01/31 12:49:28;;;;;;;7.05;4.20;;;;;;;;;;5053499;28;20850;-83
2023/01/31 12:51:59;;;;;;;5.88;4.20;;;;;;;;;;5054099;28;20421;-84
2023/01/31 12:54:44;;;;;;;4.88;4.35;;;;;;;;;;5055603;28;20772;-83
2023/01/31 12:57:19;;;;;;;5.55;4.13;;;;;;;;;;5055707;28;20487;-82
2023/01/31 13:00:01;;;;;;;6.95;4.38;;;;;;;;;;5055535;28;20915;-82
2023/01/31 13:02:46;;;;;;;9.02;4.68;;;;;;;;;;5055438;28;20377;-82
2023/01/31 13:05:30;;;;;;;5.03;3.85;;;;;;;;;;5054081;28;20528;-83
2023/01/31 13:08:05;;;;;;;5.35;4.00;;;;;;;;;;5037445;28;20553;-82
2023/01/31 13:10:44;;;;;;;7.03;4.13;;;;;;;;;;5051492;28;20461;-84
2023/01/31 13:13:31;;;;;;;4.00;3.60;;;;;;;;;;5054719;28;20495;-83
2023/01/31 13:16:02;;;;;;;5.55;3.85;;;;;;;;;;5054597;28;20878;-83
2023/01/31 13:18:31;;;;;;;5.55;3.80;;;;;;;;;;5055132;28;20512;-84
2023/01/31 13:20:59;;;;;;;4.20;3.60;;;;;;;;;;5055272;28;20810;-84
2023/01/31 13:23:31;;;;;;;5.13;3.83;;;;;;;;;;5053814;28;20434;-84
2023/01/31 13:26:11;;;;;;;7.60;3.92;;;;;;;;;;5054510;28;20463;-84
2023/01/31 13:28:41;;;;;;;5.03;3.55;;;;;;;;;;5054649;28;20400;-84
2023/01/31 13:31:31;;;;;;;6.38;3.70;;;;;;;;;;5055092;28;20399;-85
2023/01/31 13:34:05;;;;;;;7.03;3.42;;;;;;;;;;5054418;28;20479;-85
2023/01/31 13:36:40;;;;;;;5.97;3.50;;;;;;;;;;5054930;28;20465;-82
2023/01/31 13:39:11;;;;;;;6.38;4.13;;;;;;;;;;5054531;28;20444;-82
2023/01/31 13:41:38;;;;;;;4.93;3.42;;;;;;;;;;5054845;28;20488;-85
2023/01/31 13:44:05;;;;;;;6.03;3.63;;;;;;;;;;5054495;28;20373;-85
2023/01/31 13:46:38;;;;;;;5.95;3.47;;;;;;;;;;5054736;28;20384;-85
2023/01/31 13:49:06;;;;;;;5.72;3.42;;;;;;;;;;5053953;28;20943;-84
2023/01/31 13:51:37;;;;;;;6.82;3.30;;;;;;;;;;5036808;28;20944;-84
2023/01/31 13:54:09;;;;;;;6.78;3.10;;;;;;;;;;5052191;28;20457;-84
2023/01/31 13:56:36;;;;;;;4.15;2.60;;;;;;;;;;5054483;28;20437;-84
2023/01/31 13:59:07;;;;;;;5.25;2.90;;;;;;;;;;5036678;28;20878;-85
2023/01/31 14:01:34;;;;;;;5.30;2.80;;;;;;;;;;5054518;28;20504;-85
2023/01/31 14:04:16;;;;;;;4.13;2.78;;;;;;;;;;5054558;28;20433;-85
2023/01/31 14:07:13;;;;;;;5.03;2.90;;;;;;;;;;5054264;28;20447;-85
2023/01/31 14:09:42;;;;;;;6.57;3.05;;;;;;;;;;5054297;28;20736;-84
2023/01/31 14:12:15;;;;;;;6.60;3.22;;;;;;;;;;5036644;28;20382;-84
2023/01/31 14:14:44;;;;;;;6.53;3.47;;;;;;;;;;5053563;28;20867;-84
2023/01/31 14:17:10;;;;;;;4.88;3.25;;;;;;;;;;5054136;28;20377;-84
2023/01/31 14:19:42;;;;;;;8.03;3.30;;;;;;;;;;5054198;28;20396;-85
2023/01/31 14:22:16;;;;;;;5.68;2.83;;;;;;;;;;5054002;28;20442;-84
2023/01/31 14:24:58;;;;;;;5.45;3.55;;;;;;;;;;5053456;28;20438;-84
2023/01/31 14:27:30;;;;;;;5.72;3.65;;;;;;;;;;5054329;28;20453;-84
2023/01/31 14:29:59;;;;;;;4.60;3.55;;;;;;;;;;5053932;28;20743;-84
2023/01/31 14:32:30;;;;;;;6.38;3.70;;;;;;;;;;5053817;28;20874;-85
2023/01/31 14:34:56;;;;;;;5.82;3.80;;;;;;;;;;5053590;28;20401;-84
2023/01/31 14:37:32;;;;;;;4.75;4.00;;;;;;;;;;5053772;28;20449;-85
2023/01/31 14:40:13;;;;;;;5.00;3.95;;;;;;;;;;5044554;28;20874;-84
2023/01/31 14:42:48;;;;;;;5.63;4.05;;;;;;;;;;5053836;28;20433;-84
2023/01/31 14:45:19;;;;;;;6.05;4.25;;;;;;;;;;5051869;28;20803;-85
2023/01/31 14:47:45;;;;;;;5.88;4.10;;;;;;;;;;5033282;28;20459;-85
2023/01/31 14:50:11;;;;;;;8.10;5.63;;;;;;;;;;5053692;28;20378;-85
2023/01/31 14:52:56;;;;;;;6.33;4.90;;;;;;;;;;5060605;28;20386;-84